sensor_id;sensor_type;location;lat;lon;timestamp;temperature;humidity
70074;DHT22;57445;51.058;3.698;2023-07-08T00:01:20;23.70;61.90
70074;DHT22;57445;51.058;3.698;2023-07-08T00:03:48;23.60;62.30
70074;DHT22;57445;51.058;3.698;2023-07-08T00:06:16;23.50;62.50
70074;DHT22;57445;51.058;3.698;2023-07-08T00:08:44;23.40;62.60
70074;DHT22;57445;51.058;3.698;2023-07-08T00:11:13;23.40;62.60
70074;DHT22;57445;51.058;3.698;2023-07-08T00:13:41;23.40;62.70
70074;DHT22;57445;51.058;3.698;2023-07-08T00:16:11;23.40;62.80
70074;DHT22;57445;51.058;3.698;2023-07-08T00:18:39;23.30;62.80
70074;DHT22;57445;51.058;3.698;2023-07-08T00:21:08;23.30;62.70
70074;DHT22;57445;51.058;3.698;2023-07-08T00:23:36;23.50;62.40
70074;DHT22;57445;51.058;3.698;2023-07-08T00:26:07;23.50;62.20
70074;DHT22;57445;51.058;3.698;2023-07-08T00:28:37;23.50;62.00
70074;DHT22;57445;51.058;3.698;2023-07-08T00:31:08;23.40;61.90
70074;DHT22;57445;51.058;3.698;2023-07-08T00:33:35;23.40;61.90
70074;DHT22;57445;51.058;3.698;2023-07-08T00:36:05;23.30;62.30
70074;DHT22;57445;51.058;3.698;2023-07-08T00:38:35;23.30;62.40
70074;DHT22;57445;51.058;3.698;2023-07-08T00:41:06;23.20;62.50
70074;DHT22;57445;51.058;3.698;2023-07-08T00:43:35;23.30;62.50
70074;DHT22;57445;51.058;3.698;2023-07-08T00:46:11;23.20;62.20
70074;DHT22;57445;51.058;3.698;2023-07-08T00:48:40;23.20;62.30
70074;DHT22;57445;51.058;3.698;2023-07-08T00:51:08;23.00;62.60
70074;DHT22;57445;51.058;3.698;2023-07-08T00:53:36;23.00;62.60
70074;DHT22;57445;51.058;3.698;2023-07-08T00:56:06;23.00;62.60
70074;DHT22;57445;51.058;3.698;2023-07-08T00:58:36;23.00;62.50
70074;DHT22;57445;51.058;3.698;2023-07-08T01:01:06;23.00;62.40
70074;DHT22;57445;51.058;3.698;2023-07-08T01:03:35;23.00;62.60
70074;DHT22;57445;51.058;3.698;2023-07-08T01:06:05;23.10;62.40
70074;DHT22;57445;51.058;3.698;2023-07-08T01:08:32;23.20;62.30
70074;DHT22;57445;51.058;3.698;2023-07-08T01:11:01;23.20;62.00
70074;DHT22;57445;51.058;3.698;2023-07-08T01:13:30;23.20;62.10
70074;DHT22;57445;51.058;3.698;2023-07-08T01:15:59;23.10;62.10
70074;DHT22;57445;51.058;3.698;2023-07-08T01:18:28;23.00;62.40
70074;DHT22;57445;51.058;3.698;2023-07-08T01:21:00;22.90;62.70
70074;DHT22;57445;51.058;3.698;2023-07-08T01:23:32;22.80;62.80
70074;DHT22;57445;51.058;3.698;2023-07-08T01:25:59;22.80;63.00
70074;DHT22;57445;51.058;3.698;2023-07-08T01:28:27;22.80;63.00
70074;DHT22;57445;51.058;3.698;2023-07-08T01:30:55;22.70;63.00
70074;DHT22;57445;51.058;3.698;2023-07-08T01:33:23;22.70;63.10
70074;DHT22;57445;51.058;3.698;2023-07-08T01:35:51;22.90;63.00
70074;DHT22;57445;51.058;3.698;2023-07-08T01:38:22;23.00;62.50
70074;DHT22;57445;51.058;3.698;2023-07-08T01:40:53;22.90;62.80
70074;DHT22;57445;51.058;3.698;2023-07-08T01:43:21;22.90;62.70
70074;DHT22;57445;51.058;3.698;2023-07-08T01:45:49;23.00;62.60
70074;DHT22;57445;51.058;3.698;2023-07-08T01:48:18;23.00;62.50
70074;DHT22;57445;51.058;3.698;2023-07-08T01:50:48;22.90;62.80
70074;DHT22;57445;51.058;3.698;2023-07-08T01:53:18;22.70;62.90
70074;DHT22;57445;51.058;3.698;2023-07-08T01:55:45;22.60;63.20
70074;DHT22;57445;51.058;3.698;2023-07-08T01:58:14;22.60;63.20
70074;DHT22;57445;51.058;3.698;2023-07-08T02:00:42;22.60;63.30
70074;DHT22;57445;51.058;3.698;2023-07-08T02:03:10;22.70;62.90
70074;DHT22;57445;51.058;3.698;2023-07-08T02:05:38;22.60;63.10
70074;DHT22;57445;51.058;3.698;2023-07-08T02:08:05;22.40;63.60
70074;DHT22;57445;51.058;3.698;2023-07-08T02:10:32;22.30;63.90
70074;DHT22;57445;51.058;3.698;2023-07-08T02:13:00;22.50;63.60
70074;DHT22;57445;51.058;3.698;2023-07-08T02:15:28;22.30;63.60
70074;DHT22;57445;51.058;3.698;2023-07-08T02:17:56;22.30;63.80
70074;DHT22;57445;51.058;3.698;2023-07-08T02:20:23;22.30;63.60
70074;DHT22;57445;51.058;3.698;2023-07-08T02:22:51;22.50;63.40
70074;DHT22;57445;51.058;3.698;2023-07-08T02:25:18;22.30;63.60
70074;DHT22;57445;51.058;3.698;2023-07-08T02:27:46;22.30;63.60
70074;DHT22;57445;51.058;3.698;2023-07-08T02:30:13;22.30;63.60
70074;DHT22;57445;51.058;3.698;2023-07-08T02:32:42;22.60;63.20
70074;DHT22;57445;51.058;3.698;2023-07-08T02:35:23;22.40;63.50
70074;DHT22;57445;51.058;3.698;2023-07-08T02:37:50;22.40;63.50
70074;DHT22;57445;51.058;3.698;2023-07-08T02:40:18;22.20;63.70
70074;DHT22;57445;51.058;3.698;2023-07-08T02:42:45;22.10;64.00
70074;DHT22;57445;51.058;3.698;2023-07-08T02:45:13;22.10;64.20
70074;DHT22;57445;51.058;3.698;2023-07-08T02:47:41;22.20;64.00
70074;DHT22;57445;51.058;3.698;2023-07-08T02:50:10;22.10;64.00
70074;DHT22;57445;51.058;3.698;2023-07-08T02:52:37;22.10;64.10
70074;DHT22;57445;51.058;3.698;2023-07-08T02:55:05;22.00;64.10
70074;DHT22;57445;51.058;3.698;2023-07-08T02:57:33;22.10;64.20
70074;DHT22;57445;51.058;3.698;2023-07-08T03:00:00;22.00;64.30
70074;DHT22;57445;51.058;3.698;2023-07-08T03:02:30;21.90;64.50
70074;DHT22;57445;51.058;3.698;2023-07-08T03:04:57;21.90;64.80
70074;DHT22;57445;51.058;3.698;2023-07-08T03:07:26;21.90;64.70
70074;DHT22;57445;51.058;3.698;2023-07-08T03:09:54;22.10;64.40
70074;DHT22;57445;51.058;3.698;2023-07-08T03:12:21;22.10;64.30
70074;DHT22;57445;51.058;3.698;2023-07-08T03:14:49;21.90;64.80
70074;DHT22;57445;51.058;3.698;2023-07-08T03:17:16;22.10;64.60
70074;DHT22;57445;51.058;3.698;2023-07-08T03:19:45;22.00;64.60
70074;DHT22;57445;51.058;3.698;2023-07-08T03:22:13;22.00;64.80
70074;DHT22;57445;51.058;3.698;2023-07-08T03:24:42;22.00;64.80
70074;DHT22;57445;51.058;3.698;2023-07-08T03:27:12;22.00;64.70
70074;DHT22;57445;51.058;3.698;2023-07-08T03:29:40;22.00;64.90
70074;DHT22;57445;51.058;3.698;2023-07-08T03:32:07;21.90;64.90
70074;DHT22;57445;51.058;3.698;2023-07-08T03:34:36;21.90;65.10
70074;DHT22;57445;51.058;3.698;2023-07-08T03:37:04;21.90;64.90
70074;DHT22;57445;51.058;3.698;2023-07-08T03:39:32;22.00;64.80
70074;DHT22;57445;51.058;3.698;2023-07-08T03:42:01;22.00;64.70
70074;DHT22;57445;51.058;3.698;2023-07-08T03:44:29;21.90;65.00
70074;DHT22;57445;51.058;3.698;2023-07-08T03:46:57;21.80;65.20
70074;DHT22;57445;51.058;3.698;2023-07-08T03:49:25;21.70;65.30
70074;DHT22;57445;51.058;3.698;2023-07-08T03:51:52;21.80;65.30
70074;DHT22;57445;51.058;3.698;2023-07-08T03:54:21;21.80;65.40
70074;DHT22;57445;51.058;3.698;2023-07-08T03:56:49;21.70;65.50
70074;DHT22;57445;51.058;3.698;2023-07-08T03:59:18;21.70;65.40
70074;DHT22;57445;51.058;3.698;2023-07-08T04:01:46;21.80;65.40
70074;DHT22;57445;51.058;3.698;2023-07-08T04:04:14;21.80;65.40
70074;DHT22;57445;51.058;3.698;2023-07-08T04:06:42;21.70;65.70
70074;DHT22;57445;51.058;3.698;2023-07-08T04:09:09;21.70;65.70
70074;DHT22;57445;51.058;3.698;2023-07-08T04:11:36;21.70;65.60
70074;DHT22;57445;51.058;3.698;2023-07-08T04:14:04;21.90;65.30
70074;DHT22;57445;51.058;3.698;2023-07-08T04:16:42;21.90;65.40
70074;DHT22;57445;51.058;3.698;2023-07-08T04:19:12;21.90;65.60
70074;DHT22;57445;51.058;3.698;2023-07-08T04:21:41;21.80;66.00
70074;DHT22;57445;51.058;3.698;2023-07-08T04:24:09;21.90;65.70
70074;DHT22;57445;51.058;3.698;2023-07-08T04:26:37;22.20;65.50
70074;DHT22;57445;51.058;3.698;2023-07-08T04:29:07;22.10;65.10
70074;DHT22;57445;51.058;3.698;2023-07-08T04:31:35;22.00;65.30
70074;DHT22;57445;51.058;3.698;2023-07-08T04:34:03;22.20;65.00
70074;DHT22;57445;51.058;3.698;2023-07-08T04:36:32;22.30;64.90
70074;DHT22;57445;51.058;3.698;2023-07-08T04:39:00;22.20;65.30
70074;DHT22;57445;51.058;3.698;2023-07-08T04:41:28;22.20;65.10
70074;DHT22;57445;51.058;3.698;2023-07-08T04:43:56;22.00;65.70
70074;DHT22;57445;51.058;3.698;2023-07-08T04:46:26;21.80;65.90
70074;DHT22;57445;51.058;3.698;2023-07-08T04:48:56;21.90;65.90
70074;DHT22;57445;51.058;3.698;2023-07-08T04:51:26;22.00;65.90
70074;DHT22;57445;51.058;3.698;2023-07-08T04:53:54;22.00;65.70
70074;DHT22;57445;51.058;3.698;2023-07-08T04:56:21;22.10;65.30
70074;DHT22;57445;51.058;3.698;2023-07-08T04:58:49;22.10;65.60
70074;DHT22;57445;51.058;3.698;2023-07-08T05:01:17;22.10;65.40
70074;DHT22;57445;51.058;3.698;2023-07-08T05:03:44;22.30;65.40
70074;DHT22;57445;51.058;3.698;2023-07-08T05:06:13;22.00;65.80
70074;DHT22;57445;51.058;3.698;2023-07-08T05:08:40;22.20;66.30
70074;DHT22;57445;51.058;3.698;2023-07-08T05:11:08;22.40;65.10
70074;DHT22;57445;51.058;3.698;2023-07-08T05:13:35;22.50;65.00
70074;DHT22;57445;51.058;3.698;2023-07-08T05:16:03;22.40;65.00
70074;DHT22;57445;51.058;3.698;2023-07-08T05:18:32;22.40;65.20
70074;DHT22;57445;51.058;3.698;2023-07-08T05:21:00;22.50;65.90
70074;DHT22;57445;51.058;3.698;2023-07-08T05:23:32;22.70;64.50
70074;DHT22;57445;51.058;3.698;2023-07-08T05:26:00;22.70;64.50
70074;DHT22;57445;51.058;3.698;2023-07-08T05:28:28;22.80;64.30
70074;DHT22;57445;51.058;3.698;2023-07-08T05:30:56;22.80;64.00
70074;DHT22;57445;51.058;3.698;2023-07-08T05:33:23;23.10;63.80
70074;DHT22;57445;51.058;3.698;2023-07-08T05:35:51;23.80;62.60
70074;DHT22;57445;51.058;3.698;2023-07-08T05:38:19;24.80;61.00
70074;DHT22;57445;51.058;3.698;2023-07-08T05:40:49;25.80;59.20
70074;DHT22;57445;51.058;3.698;2023-07-08T05:43:17;26.60;57.80
70074;DHT22;57445;51.058;3.698;2023-07-08T05:45:44;28.00;55.80
70074;DHT22;57445;51.058;3.698;2023-07-08T05:48:12;28.80;54.20
70074;DHT22;57445;51.058;3.698;2023-07-08T05:50:40;29.70;52.90
70074;DHT22;57445;51.058;3.698;2023-07-08T05:53:09;30.40;52.00
70074;DHT22;57445;51.058;3.698;2023-07-08T05:55:37;31.10;51.20
70074;DHT22;57445;51.058;3.698;2023-07-08T05:58:06;31.60;50.00
70074;DHT22;57445;51.058;3.698;2023-07-08T06:00:33;32.00;49.00
70074;DHT22;57445;51.058;3.698;2023-07-08T06:03:01;32.30;49.00
70074;DHT22;57445;51.058;3.698;2023-07-08T06:05:30;32.50;49.00
70074;DHT22;57445;51.058;3.698;2023-07-08T06:07:59;32.80;48.30
70074;DHT22;57445;51.058;3.698;2023-07-08T06:10:26;33.30;47.20
70074;DHT22;57445;51.058;3.698;2023-07-08T06:12:55;33.20;47.20
70074;DHT22;57445;51.058;3.698;2023-07-08T06:15:24;33.80;47.10
70074;DHT22;57445;51.058;3.698;2023-07-08T06:17:52;33.80;46.70
70074;DHT22;57445;51.058;3.698;2023-07-08T06:20:19;34.10;46.10
70074;DHT22;57445;51.058;3.698;2023-07-08T06:22:46;34.80;45.60
70074;DHT22;57445;51.058;3.698;2023-07-08T06:25:14;35.20;45.10
70074;DHT22;57445;51.058;3.698;2023-07-08T06:27:42;35.00;45.20
70074;DHT22;57445;51.058;3.698;2023-07-08T06:30:09;35.30;45.10
70074;DHT22;57445;51.058;3.698;2023-07-08T06:32:41;35.50;44.70
70074;DHT22;57445;51.058;3.698;2023-07-08T06:35:08;35.10;44.90
70074;DHT22;57445;51.058;3.698;2023-07-08T06:37:36;35.30;44.70
70074;DHT22;57445;51.058;3.698;2023-07-08T06:40:04;35.40;44.70
70074;DHT22;57445;51.058;3.698;2023-07-08T06:42:31;35.10;44.80
70074;DHT22;57445;51.058;3.698;2023-07-08T06:44:59;35.10;45.20
70074;DHT22;57445;51.058;3.698;2023-07-08T06:47:26;34.30;45.70
70074;DHT22;57445;51.058;3.698;2023-07-08T06:49:55;34.40;45.70
70074;DHT22;57445;51.058;3.698;2023-07-08T06:52:22;33.00;47.30
70074;DHT22;57445;51.058;3.698;2023-07-08T06:54:50;32.90;47.90
70074;DHT22;57445;51.058;3.698;2023-07-08T06:57:17;33.80;47.10
70074;DHT22;57445;51.058;3.698;2023-07-08T06:59:45;33.80;46.90
70074;DHT22;57445;51.058;3.698;2023-07-08T07:02:12;33.70;47.10
70074;DHT22;57445;51.058;3.698;2023-07-08T07:04:40;34.40;46.50
70074;DHT22;57445;51.058;3.698;2023-07-08T07:07:09;34.80;46.00
70074;DHT22;57445;51.058;3.698;2023-07-08T07:09:36;34.90;45.30
70074;DHT22;57445;51.058;3.698;2023-07-08T07:12:04;34.90;45.40
70074;DHT22;57445;51.058;3.698;2023-07-08T07:14:32;34.70;46.10
70074;DHT22;57445;51.058;3.698;2023-07-08T07:17:00;34.20;46.80
70074;DHT22;57445;51.058;3.698;2023-07-08T07:19:27;33.80;46.80
70074;DHT22;57445;51.058;3.698;2023-07-08T07:21:55;33.70;47.40
70074;DHT22;57445;51.058;3.698;2023-07-08T07:24:25;33.70;48.00
70074;DHT22;57445;51.058;3.698;2023-07-08T07:26:52;33.50;48.20
70074;DHT22;57445;51.058;3.698;2023-07-08T07:29:21;33.20;47.80
70074;DHT22;57445;51.058;3.698;2023-07-08T07:31:49;32.90;47.80
70074;DHT22;57445;51.058;3.698;2023-07-08T07:34:17;32.00;49.20
70074;DHT22;57445;51.058;3.698;2023-07-08T07:36:45;30.60;51.10
70074;DHT22;57445;51.058;3.698;2023-07-08T07:39:13;30.60;51.30
70074;DHT22;57445;51.058;3.698;2023-07-08T07:41:42;30.10;51.80
70074;DHT22;57445;51.058;3.698;2023-07-08T07:44:09;29.90;52.20
70074;DHT22;57445;51.058;3.698;2023-07-08T07:46:36;29.60;53.10
70074;DHT22;57445;51.058;3.698;2023-07-08T07:49:04;29.70;52.90
70074;DHT22;57445;51.058;3.698;2023-07-08T07:51:31;29.70;52.40
70074;DHT22;57445;51.058;3.698;2023-07-08T07:53:59;28.90;53.60
70074;DHT22;57445;51.058;3.698;2023-07-08T07:56:29;28.80;54.10
70074;DHT22;57445;51.058;3.698;2023-07-08T07:58:58;28.00;55.50
70074;DHT22;57445;51.058;3.698;2023-07-08T08:01:25;27.90;55.90
70074;DHT22;57445;51.058;3.698;2023-07-08T08:03:52;28.50;55.00
70074;DHT22;57445;51.058;3.698;2023-07-08T08:06:20;28.30;55.60
70074;DHT22;57445;51.058;3.698;2023-07-08T08:08:48;28.30;55.70
70074;DHT22;57445;51.058;3.698;2023-07-08T08:11:16;28.50;55.20
70074;DHT22;57445;51.058;3.698;2023-07-08T08:13:43;28.80;53.90
70074;DHT22;57445;51.058;3.698;2023-07-08T08:16:12;28.90;54.20
70074;DHT22;57445;51.058;3.698;2023-07-08T08:18:39;28.80;54.50
70074;DHT22;57445;51.058;3.698;2023-07-08T08:21:07;28.50;55.00
70074;DHT22;57445;51.058;3.698;2023-07-08T08:23:34;28.80;55.20
70074;DHT22;57445;51.058;3.698;2023-07-08T08:26:02;28.90;54.90
70074;DHT22;57445;51.058;3.698;2023-07-08T08:28:29;28.70;55.10
70074;DHT22;57445;51.058;3.698;2023-07-08T08:30:57;28.70;55.10
70074;DHT22;57445;51.058;3.698;2023-07-08T08:33:26;28.60;55.50
70074;DHT22;57445;51.058;3.698;2023-07-08T08:35:53;28.40;56.40
70074;DHT22;57445;51.058;3.698;2023-07-08T08:38:21;28.80;55.90
70074;DHT22;57445;51.058;3.698;2023-07-08T08:40:48;28.90;56.20
70074;DHT22;57445;51.058;3.698;2023-07-08T08:43:16;28.90;56.10
70074;DHT22;57445;51.058;3.698;2023-07-08T08:45:46;29.00;55.70
70074;DHT22;57445;51.058;3.698;2023-07-08T08:48:16;29.40;55.40
70074;DHT22;57445;51.058;3.698;2023-07-08T08:50:49;29.60;55.00
70074;DHT22;57445;51.058;3.698;2023-07-08T08:53:18;29.20;55.30
70074;DHT22;57445;51.058;3.698;2023-07-08T08:55:46;29.50;54.40
70074;DHT22;57445;51.058;3.698;2023-07-08T08:58:18;29.60;54.50
70074;DHT22;57445;51.058;3.698;2023-07-08T09:00:53;29.60;55.00
70074;DHT22;57445;51.058;3.698;2023-07-08T09:03:27;29.30;55.50
70074;DHT22;57445;51.058;3.698;2023-07-08T09:05:58;29.10;55.80
70074;DHT22;57445;51.058;3.698;2023-07-08T09:08:27;28.90;55.90
70074;DHT22;57445;51.058;3.698;2023-07-08T09:10:58;29.10;55.70
70074;DHT22;57445;51.058;3.698;2023-07-08T09:13:28;29.70;54.10
70074;DHT22;57445;51.058;3.698;2023-07-08T09:15:58;29.70;54.00
70074;DHT22;57445;51.058;3.698;2023-07-08T09:18:32;29.20;54.70
70074;DHT22;57445;51.058;3.698;2023-07-08T09:21:04;29.20;54.80
70074;DHT22;57445;51.058;3.698;2023-07-08T09:23:33;29.50;53.10
70074;DHT22;57445;51.058;3.698;2023-07-08T09:26:02;30.00;52.50
70074;DHT22;57445;51.058;3.698;2023-07-08T09:28:35;30.20;52.10
70074;DHT22;57445;51.058;3.698;2023-07-08T09:31:03;30.10;52.60
70074;DHT22;57445;51.058;3.698;2023-07-08T09:33:36;30.40;52.40
70074;DHT22;57445;51.058;3.698;2023-07-08T09:36:15;30.90;51.30
70074;DHT22;57445;51.058;3.698;2023-07-08T09:38:43;31.50;50.00
70074;DHT22;57445;51.058;3.698;2023-07-08T09:41:11;31.60;50.30
70074;DHT22;57445;51.058;3.698;2023-07-08T09:43:39;31.50;50.40
70074;DHT22;57445;51.058;3.698;2023-07-08T09:46:08;31.50;50.40
70074;DHT22;57445;51.058;3.698;2023-07-08T09:48:38;31.60;50.00
70074;DHT22;57445;51.058;3.698;2023-07-08T09:51:05;31.50;50.00
70074;DHT22;57445;51.058;3.698;2023-07-08T09:53:35;31.90;49.60
70074;DHT22;57445;51.058;3.698;2023-07-08T09:56:03;32.10;48.90
70074;DHT22;57445;51.058;3.698;2023-07-08T09:58:32;32.00;49.30
70074;DHT22;57445;51.058;3.698;2023-07-08T10:01:01;32.20;49.50
70074;DHT22;57445;51.058;3.698;2023-07-08T10:03:30;32.10;48.20
70074;DHT22;57445;51.058;3.698;2023-07-08T10:05:58;31.70;48.40
70074;DHT22;57445;51.058;3.698;2023-07-08T10:08:31;31.40;49.30
70074;DHT22;57445;51.058;3.698;2023-07-08T10:11:22;31.60;49.40
70074;DHT22;57445;51.058;3.698;2023-07-08T10:13:52;31.80;48.60
70074;DHT22;57445;51.058;3.698;2023-07-08T10:16:21;32.40;47.70
70074;DHT22;57445;51.058;3.698;2023-07-08T10:18:49;32.60;47.30
70074;DHT22;57445;51.058;3.698;2023-07-08T10:21:20;32.50;47.20
70074;DHT22;57445;51.058;3.698;2023-07-08T10:23:51;32.70;47.20
70074;DHT22;57445;51.058;3.698;2023-07-08T10:26:24;33.20;47.10
70074;DHT22;57445;51.058;3.698;2023-07-08T10:28:56;33.50;46.90
70074;DHT22;57445;51.058;3.698;2023-07-08T10:31:27;33.20;46.80
70074;DHT22;57445;51.058;3.698;2023-07-08T10:34:05;32.90;46.90
70074;DHT22;57445;51.058;3.698;2023-07-08T10:36:42;33.10;46.60
70074;DHT22;57445;51.058;3.698;2023-07-08T10:39:17;32.90;46.80
70074;DHT22;57445;51.058;3.698;2023-07-08T10:41:53;32.80;47.80
70074;DHT22;57445;51.058;3.698;2023-07-08T10:44:26;32.60;48.20
70074;DHT22;57445;51.058;3.698;2023-07-08T10:46:56;33.00;47.60
70074;DHT22;57445;51.058;3.698;2023-07-08T10:49:38;33.40;46.60
70074;DHT22;57445;51.058;3.698;2023-07-08T10:52:13;33.30;46.60
70074;DHT22;57445;51.058;3.698;2023-07-08T10:54:48;32.90;47.10
70074;DHT22;57445;51.058;3.698;2023-07-08T10:57:26;33.00;47.20
70074;DHT22;57445;51.058;3.698;2023-07-08T11:00:00;33.00;46.60
70074;DHT22;57445;51.058;3.698;2023-07-08T11:02:36;32.80;46.70
70074;DHT22;57445;51.058;3.698;2023-07-08T11:05:15;32.50;47.60
70074;DHT22;57445;51.058;3.698;2023-07-08T11:07:47;32.80;46.70
70074;DHT22;57445;51.058;3.698;2023-07-08T11:10:19;33.10;46.20
70074;DHT22;57445;51.058;3.698;2023-07-08T11:12:52;33.20;46.40
70074;DHT22;57445;51.058;3.698;2023-07-08T11:15:23;33.30;46.50
70074;DHT22;57445;51.058;3.698;2023-07-08T11:17:52;33.70;46.90
70074;DHT22;57445;51.058;3.698;2023-07-08T11:20:23;34.00;46.40
70074;DHT22;57445;51.058;3.698;2023-07-08T11:22:52;34.40;45.70
70074;DHT22;57445;51.058;3.698;2023-07-08T11:25:21;34.30;45.20
70074;DHT22;57445;51.058;3.698;2023-07-08T11:27:54;34.50;44.90
70074;DHT22;57445;51.058;3.698;2023-07-08T11:30:23;34.90;43.80
70074;DHT22;57445;51.058;3.698;2023-07-08T11:32:54;34.80;44.10
70074;DHT22;57445;51.058;3.698;2023-07-08T11:35:25;35.00;44.20
70074;DHT22;57445;51.058;3.698;2023-07-08T11:37:54;35.10;43.90
70074;DHT22;57445;51.058;3.698;2023-07-08T11:40:22;35.00;44.80
70074;DHT22;57445;51.058;3.698;2023-07-08T11:42:50;35.00;45.00
70074;DHT22;57445;51.058;3.698;2023-07-08T11:45:27;35.60;44.30
70074;DHT22;57445;51.058;3.698;2023-07-08T11:48:03;35.70;44.10
70074;DHT22;57445;51.058;3.698;2023-07-08T11:50:31;35.50;44.20
70074;DHT22;57445;51.058;3.698;2023-07-08T11:53:01;35.40;44.40
70074;DHT22;57445;51.058;3.698;2023-07-08T11:55:35;35.30;44.70
70074;DHT22;57445;51.058;3.698;2023-07-08T11:58:05;35.50;44.90
70074;DHT22;57445;51.058;3.698;2023-07-08T12:00:34;35.60;44.80
70074;DHT22;57445;51.058;3.698;2023-07-08T12:03:04;35.70;45.10
70074;DHT22;57445;51.058;3.698;2023-07-08T12:05:43;35.50;45.60
70074;DHT22;57445;51.058;3.698;2023-07-08T12:08:13;35.90;44.80
70074;DHT22;57445;51.058;3.698;2023-07-08T12:10:41;36.10;44.60
70074;DHT22;57445;51.058;3.698;2023-07-08T12:13:13;36.80;43.30
70074;DHT22;57445;51.058;3.698;2023-07-08T12:15:43;36.90;43.30
70074;DHT22;57445;51.058;3.698;2023-07-08T12:18:12;36.80;43.60
70074;DHT22;57445;51.058;3.698;2023-07-08T12:20:40;36.40;43.70
70074;DHT22;57445;51.058;3.698;2023-07-08T12:23:09;36.90;43.20
70074;DHT22;57445;51.058;3.698;2023-07-08T12:25:38;37.20;43.20
70074;DHT22;57445;51.058;3.698;2023-07-08T12:28:05;37.30;43.40
70074;DHT22;57445;51.058;3.698;2023-07-08T12:30:32;37.50;43.10
70074;DHT22;57445;51.058;3.698;2023-07-08T12:33:01;37.60;42.80
70074;DHT22;57445;51.058;3.698;2023-07-08T12:35:31;37.80;42.70
70074;DHT22;57445;51.058;3.698;2023-07-08T12:37:59;37.80;43.00
70074;DHT22;57445;51.058;3.698;2023-07-08T12:40:28;37.60;43.40
70074;DHT22;57445;51.058;3.698;2023-07-08T12:42:56;37.60;43.80
70074;DHT22;57445;51.058;3.698;2023-07-08T12:45:26;37.60;43.80
70074;DHT22;57445;51.058;3.698;2023-07-08T12:47:54;37.50;44.10
70074;DHT22;57445;51.058;3.698;2023-07-08T12:50:23;37.70;44.00
70074;DHT22;57445;51.058;3.698;2023-07-08T12:52:50;38.10;43.70
70074;DHT22;57445;51.058;3.698;2023-07-08T12:55:20;38.20;43.40
70074;DHT22;57445;51.058;3.698;2023-07-08T12:57:49;38.60;42.70
70074;DHT22;57445;51.058;3.698;2023-07-08T13:00:19;38.80;43.10
70074;DHT22;57445;51.058;3.698;2023-07-08T13:02:48;39.30;42.60
70074;DHT22;57445;51.058;3.698;2023-07-08T13:05:21;39.70;42.70
70074;DHT22;57445;51.058;3.698;2023-07-08T13:07:50;39.60;42.70
70074;DHT22;57445;51.058;3.698;2023-07-08T13:10:18;38.80;42.70
70074;DHT22;57445;51.058;3.698;2023-07-08T13:12:47;38.40;43.70
70074;DHT22;57445;51.058;3.698;2023-07-08T13:15:18;37.80;43.90
70074;DHT22;57445;51.058;3.698;2023-07-08T13:17:47;37.20;44.50
70074;DHT22;57445;51.058;3.698;2023-07-08T13:20:15;36.80;44.80
70074;DHT22;57445;51.058;3.698;2023-07-08T13:22:46;37.10;44.90
70074;DHT22;57445;51.058;3.698;2023-07-08T13:25:17;37.80;44.50
70074;DHT22;57445;51.058;3.698;2023-07-08T13:27:53;38.40;44.10
70074;DHT22;57445;51.058;3.698;2023-07-08T13:30:21;37.80;43.70
70074;DHT22;57445;51.058;3.698;2023-07-08T13:32:51;37.90;44.80
70074;DHT22;57445;51.058;3.698;2023-07-08T13:35:23;38.50;43.60
70074;DHT22;57445;51.058;3.698;2023-07-08T13:37:50;38.70;43.60
70074;DHT22;57445;51.058;3.698;2023-07-08T13:40:19;38.70;43.50
70074;DHT22;57445;51.058;3.698;2023-07-08T13:42:48;37.80;44.60
70074;DHT22;57445;51.058;3.698;2023-07-08T13:45:17;36.80;45.80
70074;DHT22;57445;51.058;3.698;2023-07-08T13:47:56;36.20;46.20
70074;DHT22;57445;51.058;3.698;2023-07-08T13:50:25;35.90;47.90
70074;DHT22;57445;51.058;3.698;2023-07-08T13:52:54;36.10;47.20
70074;DHT22;57445;51.058;3.698;2023-07-08T13:55:23;36.10;46.90
70074;DHT22;57445;51.058;3.698;2023-07-08T13:57:55;35.90;47.20
70074;DHT22;57445;51.058;3.698;2023-07-08T14:00:24;36.20;47.60
70074;DHT22;57445;51.058;3.698;2023-07-08T14:02:52;36.70;46.40
70074;DHT22;57445;51.058;3.698;2023-07-08T14:05:19;36.80;46.60
70074;DHT22;57445;51.058;3.698;2023-07-08T14:07:47;36.90;46.30
70074;DHT22;57445;51.058;3.698;2023-07-08T14:10:15;37.40;46.20
70074;DHT22;57445;51.058;3.698;2023-07-08T14:12:44;37.50;45.80
70074;DHT22;57445;51.058;3.698;2023-07-08T14:15:11;37.30;46.80
70074;DHT22;57445;51.058;3.698;2023-07-08T14:17:39;37.80;46.60
70074;DHT22;57445;51.058;3.698;2023-07-08T14:20:11;38.00;46.60
70074;DHT22;57445;51.058;3.698;2023-07-08T14:22:39;37.40;47.50
70074;DHT22;57445;51.058;3.698;2023-07-08T14:25:09;37.20;47.70
70074;DHT22;57445;51.058;3.698;2023-07-08T14:27:36;36.80;48.30
70074;DHT22;57445;51.058;3.698;2023-07-08T14:30:08;36.30;49.20
70074;DHT22;57445;51.058;3.698;2023-07-08T14:32:36;35.90;49.70
70074;DHT22;57445;51.058;3.698;2023-07-08T14:35:09;35.40;50.70
70074;DHT22;57445;51.058;3.698;2023-07-08T14:37:39;35.70;50.60
70074;DHT22;57445;51.058;3.698;2023-07-08T14:40:11;36.30;50.00
70074;DHT22;57445;51.058;3.698;2023-07-08T14:42:43;36.40;50.40
70074;DHT22;57445;51.058;3.698;2023-07-08T14:45:12;36.90;49.60
70074;DHT22;57445;51.058;3.698;2023-07-08T14:47:40;36.70;50.00
70074;DHT22;57445;51.058;3.698;2023-07-08T14:50:11;36.90;50.00
70074;DHT22;57445;51.058;3.698;2023-07-08T14:52:39;37.50;49.30
70074;DHT22;57445;51.058;3.698;2023-07-08T14:55:07;37.20;48.90
70074;DHT22;57445;51.058;3.698;2023-07-08T14:57:39;37.40;48.80
70074;DHT22;57445;51.058;3.698;2023-07-08T15:00:10;37.00;48.70
70074;DHT22;57445;51.058;3.698;2023-07-08T15:02:40;36.70;49.60
70074;DHT22;57445;51.058;3.698;2023-07-08T15:05:10;36.10;49.40
70074;DHT22;57445;51.058;3.698;2023-07-08T15:07:38;36.30;49.60
70074;DHT22;57445;51.058;3.698;2023-07-08T15:10:07;35.70;50.60
70074;DHT22;57445;51.058;3.698;2023-07-08T15:12:35;35.20;51.30
70074;DHT22;57445;51.058;3.698;2023-07-08T15:15:03;34.80;51.80
70074;DHT22;57445;51.058;3.698;2023-07-08T15:17:31;34.80;52.10
70074;DHT22;57445;51.058;3.698;2023-07-08T15:20:00;35.00;51.40
70074;DHT22;57445;51.058;3.698;2023-07-08T15:22:34;34.90;51.20
70074;DHT22;57445;51.058;3.698;2023-07-08T15:25:02;35.10;51.50
70074;DHT22;57445;51.058;3.698;2023-07-08T15:27:29;35.10;51.80
70074;DHT22;57445;51.058;3.698;2023-07-08T15:29:57;35.00;52.10
70074;DHT22;57445;51.058;3.698;2023-07-08T15:32:24;35.50;52.20
70074;DHT22;57445;51.058;3.698;2023-07-08T15:34:52;35.90;51.40
70074;DHT22;57445;51.058;3.698;2023-07-08T15:37:21;36.30;51.00
70074;DHT22;57445;51.058;3.698;2023-07-08T15:39:48;36.80;51.20
70074;DHT22;57445;51.058;3.698;2023-07-08T15:42:16;37.40;49.60